Seven Valleys, Pennsylvania
Current Conditions -  °F | °C
As of 9:53 PM on Sunday 23 Nov 2014 (Local Time) from KTHV Reporting Station
Overcast Overcast  
Wind Chill: 50°   Ceiling: 2200
Heat Index: 50°   Visibility: 10mi
Dew Point: 44°   Wind: 8mph
Humidity: 80%   Direction: 130°SE
Pressure: 29.93"   Gusts: NA
Location:  39.86°N, 76.77°W
Report Text: KTHV 240253Z AUTO 13007KT 10SM SCT016 BKN022 OVC037 10/07 A2993 RMK AO2 SLP138 T01000067 58036
Loading
Personal Weather Stations






























Interactive Weather Map New forecast layout! Learn more

10-Day Weather Forecast

Advertisements
Track Severe Weather on mobile